sensor_id;sensor_type;location;lat;lon;timestamp;temperature;humidity
52471;DHT22;38382;53.160;7.026;2023-03-04T00:00:34;5.50;99.90
52471;DHT22;38382;53.160;7.026;2023-03-04T00:03:00;5.40;99.90
52471;DHT22;38382;53.160;7.026;2023-03-04T00:05:25;5.50;99.90
52471;DHT22;38382;53.160;7.026;2023-03-04T00:07:51;5.50;99.90
52471;DHT22;38382;53.160;7.026;2023-03-04T00:10:17;5.50;99.90
52471;DHT22;38382;53.160;7.026;2023-03-04T00:12:43;5.50;99.90
52471;DHT22;38382;53.160;7.026;2023-03-04T00:15:09;5.50;99.90
52471;DHT22;38382;53.160;7.026;2023-03-04T00:17:34;5.50;99.90
52471;DHT22;38382;53.160;7.026;2023-03-04T00:20:00;5.50;99.90
52471;DHT22;38382;53.160;7.026;2023-03-04T00:22:26;5.50;99.90
52471;DHT22;38382;53.160;7.026;2023-03-04T00:24:51;5.60;99.90
52471;DHT22;38382;53.160;7.026;2023-03-04T00:27:17;6.00;99.90
52471;DHT22;38382;53.160;7.026;2023-03-04T00:29:43;5.50;99.90
52471;DHT22;38382;53.160;7.026;2023-03-04T00:32:08;6.10;99.90
52471;DHT22;38382;53.160;7.026;2023-03-04T00:34:34;5.50;99.90
52471;DHT22;38382;53.160;7.026;2023-03-04T00:37:00;5.50;99.90
52471;DHT22;38382;53.160;7.026;2023-03-04T00:39:28;5.60;99.90
52471;DHT22;38382;53.160;7.026;2023-03-04T00:41:53;5.50;99.90
52471;DHT22;38382;53.160;7.026;2023-03-04T00:44:19;5.50;99.90
52471;DHT22;38382;53.160;7.026;2023-03-04T00:46:45;5.40;99.90
52471;DHT22;38382;53.160;7.026;2023-03-04T00:49:11;6.10;99.90
52471;DHT22;38382;53.160;7.026;2023-03-04T00:51:36;5.50;99.90
52471;DHT22;38382;53.160;7.026;2023-03-04T00:54:02;5.50;99.90
52471;DHT22;38382;53.160;7.026;2023-03-04T00:56:28;5.70;99.90
52471;DHT22;38382;53.160;7.026;2023-03-04T00:58:54;5.80;99.90
52471;DHT22;38382;53.160;7.026;2023-03-04T01:01:20;5.50;99.90
52471;DHT22;38382;53.160;7.026;2023-03-04T01:03:46;6.00;99.90
52471;DHT22;38382;53.160;7.026;2023-03-04T01:06:11;5.50;99.90
52471;DHT22;38382;53.160;7.026;2023-03-04T01:08:38;5.50;99.90
52471;DHT22;38382;53.160;7.026;2023-03-04T01:11:04;5.50;99.90
52471;DHT22;38382;53.160;7.026;2023-03-04T01:13:30;6.00;99.90
52471;DHT22;38382;53.160;7.026;2023-03-04T01:15:56;5.80;99.90
52471;DHT22;38382;53.160;7.026;2023-03-04T01:18:23;5.50;99.90
52471;DHT22;38382;53.160;7.026;2023-03-04T01:20:49;5.50;99.90
52471;DHT22;38382;53.160;7.026;2023-03-04T01:23:14;5.90;99.90
52471;DHT22;38382;53.160;7.026;2023-03-04T01:25:40;5.50;99.90
52471;DHT22;38382;53.160;7.026;2023-03-04T01:28:06;5.40;99.90
52471;DHT22;38382;53.160;7.026;2023-03-04T01:30:32;5.60;99.90
52471;DHT22;38382;53.160;7.026;2023-03-04T01:32:58;5.50;99.90
52471;DHT22;38382;53.160;7.026;2023-03-04T01:35:23;5.40;99.90
52471;DHT22;38382;53.160;7.026;2023-03-04T01:37:49;5.40;99.90
52471;DHT22;38382;53.160;7.026;2023-03-04T01:40:15;5.40;99.90
52471;DHT22;38382;53.160;7.026;2023-03-04T01:42:41;5.40;99.90
52471;DHT22;38382;53.160;7.026;2023-03-04T01:45:09;5.40;99.90
52471;DHT22;38382;53.160;7.026;2023-03-04T01:47:35;5.40;99.90
52471;DHT22;38382;53.160;7.026;2023-03-04T01:50:04;5.40;99.90
52471;DHT22;38382;53.160;7.026;2023-03-04T01:52:31;5.40;99.90
52471;DHT22;38382;53.160;7.026;2023-03-04T01:54:57;6.10;99.90
52471;DHT22;38382;53.160;7.026;2023-03-04T01:57:25;5.90;99.90
52471;DHT22;38382;53.160;7.026;2023-03-04T02:00:27;5.30;99.90
52471;DHT22;38382;53.160;7.026;2023-03-04T02:03:07;5.40;99.90
52471;DHT22;38382;53.160;7.026;2023-03-04T02:05:36;5.40;99.90
52471;DHT22;38382;53.160;7.026;2023-03-04T02:08:02;5.30;99.90
52471;DHT22;38382;53.160;7.026;2023-03-04T02:10:29;5.30;99.90
52471;DHT22;38382;53.160;7.026;2023-03-04T02:12:55;5.30;99.90
52471;DHT22;38382;53.160;7.026;2023-03-04T02:15:22;5.70;99.90
52471;DHT22;38382;53.160;7.026;2023-03-04T02:17:48;5.80;99.90
52471;DHT22;38382;53.160;7.026;2023-03-04T02:23:25;5.30;99.90
52471;DHT22;38382;53.160;7.026;2023-03-04T02:26:20;5.30;99.90
52471;DHT22;38382;53.160;7.026;2023-03-04T02:28:48;5.30;99.90
52471;DHT22;38382;53.160;7.026;2023-03-04T02:31:38;6.20;99.90
52471;DHT22;38382;53.160;7.026;2023-03-04T02:34:10;5.30;99.90
52471;DHT22;38382;53.160;7.026;2023-03-04T02:36:36;5.30;99.90
52471;DHT22;38382;53.160;7.026;2023-03-04T02:39:11;5.50;99.90
52471;DHT22;38382;53.160;7.026;2023-03-04T02:41:38;5.30;99.90
52471;DHT22;38382;53.160;7.026;2023-03-04T02:44:21;5.20;99.90
52471;DHT22;38382;53.160;7.026;2023-03-04T02:46:48;5.20;99.90
52471;DHT22;38382;53.160;7.026;2023-03-04T02:49:14;5.20;99.90
52471;DHT22;38382;53.160;7.026;2023-03-04T02:51:40;5.80;99.90
52471;DHT22;38382;53.160;7.026;2023-03-04T02:54:17;5.20;99.90
52471;DHT22;38382;53.160;7.026;2023-03-04T02:56:48;4.50;99.90
52471;DHT22;38382;53.160;7.026;2023-03-04T02:59:14;5.60;99.90
52471;DHT22;38382;53.160;7.026;2023-03-04T03:01:40;5.20;99.90
52471;DHT22;38382;53.160;7.026;2023-03-04T03:04:06;5.40;99.90
52471;DHT22;38382;53.160;7.026;2023-03-04T03:06:32;5.20;99.90
52471;DHT22;38382;53.160;7.026;2023-03-04T03:08:58;5.30;99.90
52471;DHT22;38382;53.160;7.026;2023-03-04T03:11:23;5.20;99.90
52471;DHT22;38382;53.160;7.026;2023-03-04T03:13:49;5.20;99.90
52471;DHT22;38382;53.160;7.026;2023-03-04T03:16:15;5.20;99.90
52471;DHT22;38382;53.160;7.026;2023-03-04T03:18:40;5.20;99.90
52471;DHT22;38382;53.160;7.026;2023-03-04T03:21:06;5.90;99.90
52471;DHT22;38382;53.160;7.026;2023-03-04T03:23:33;5.40;99.90
52471;DHT22;38382;53.160;7.026;2023-03-04T03:25:59;5.20;99.90
52471;DHT22;38382;53.160;7.026;2023-03-04T03:28:25;5.10;99.90
52471;DHT22;38382;53.160;7.026;2023-03-04T03:30:50;5.20;99.90
52471;DHT22;38382;53.160;7.026;2023-03-04T03:33:16;5.20;99.90
52471;DHT22;38382;53.160;7.026;2023-03-04T03:35:42;5.10;99.90
52471;DHT22;38382;53.160;7.026;2023-03-04T03:38:08;5.30;99.90
52471;DHT22;38382;53.160;7.026;2023-03-04T03:40:33;5.10;99.90
52471;DHT22;38382;53.160;7.026;2023-03-04T03:42:59;5.20;99.90
52471;DHT22;38382;53.160;7.026;2023-03-04T03:45:25;5.20;99.90
52471;DHT22;38382;53.160;7.026;2023-03-04T03:47:51;4.10;99.90
52471;DHT22;38382;53.160;7.026;2023-03-04T03:50:16;5.20;99.90
52471;DHT22;38382;53.160;7.026;2023-03-04T03:56:24;5.80;99.90
52471;DHT22;38382;53.160;7.026;2023-03-04T03:58:49;5.20;99.90
52471;DHT22;38382;53.160;7.026;2023-03-04T04:01:15;5.20;99.90
52471;DHT22;38382;53.160;7.026;2023-03-04T04:03:41;5.20;99.90
52471;DHT22;38382;53.160;7.026;2023-03-04T04:06:16;5.20;99.90
52471;DHT22;38382;53.160;7.026;2023-03-04T04:08:48;5.30;99.90
52471;DHT22;38382;53.160;7.026;2023-03-04T04:11:13;5.20;99.90
52471;DHT22;38382;53.160;7.026;2023-03-04T04:13:39;6.30;99.90
52471;DHT22;38382;53.160;7.026;2023-03-04T04:16:05;5.20;99.90
52471;DHT22;38382;53.160;7.026;2023-03-04T04:18:31;5.20;99.90
52471;DHT22;38382;53.160;7.026;2023-03-04T04:20:57;4.00;99.90
52471;DHT22;38382;53.160;7.026;2023-03-04T04:23:23;5.20;99.90
52471;DHT22;38382;53.160;7.026;2023-03-04T04:25:49;5.30;99.90
52471;DHT22;38382;53.160;7.026;2023-03-04T04:30:41;5.20;99.90
52471;DHT22;38382;53.160;7.026;2023-03-04T04:33:08;5.40;99.90
52471;DHT22;38382;53.160;7.026;2023-03-04T04:35:35;5.20;99.90
52471;DHT22;38382;53.160;7.026;2023-03-04T04:38:03;5.30;99.90
52471;DHT22;38382;53.160;7.026;2023-03-04T04:40:29;5.30;99.90
52471;DHT22;38382;53.160;7.026;2023-03-04T04:42:55;5.30;99.90
52471;DHT22;38382;53.160;7.026;2023-03-04T04:45:22;5.20;99.90
52471;DHT22;38382;53.160;7.026;2023-03-04T04:47:50;5.40;99.90
52471;DHT22;38382;53.160;7.026;2023-03-04T04:50:16;5.20;99.90
52471;DHT22;38382;53.160;7.026;2023-03-04T04:52:42;5.40;99.90
52471;DHT22;38382;53.160;7.026;2023-03-04T04:55:08;5.30;99.90
52471;DHT22;38382;53.160;7.026;2023-03-04T04:57:34;5.20;99.90
52471;DHT22;38382;53.160;7.026;2023-03-04T05:00:00;5.20;99.90
52471;DHT22;38382;53.160;7.026;2023-03-04T05:02:26;5.10;99.90
52471;DHT22;38382;53.160;7.026;2023-03-04T05:04:51;6.00;99.90
52471;DHT22;38382;53.160;7.026;2023-03-04T05:07:17;5.20;99.90
52471;DHT22;38382;53.160;7.026;2023-03-04T05:09:43;5.20;99.90
52471;DHT22;38382;53.160;7.026;2023-03-04T05:12:09;5.10;99.90
52471;DHT22;38382;53.160;7.026;2023-03-04T05:14:34;5.10;99.90
52471;DHT22;38382;53.160;7.026;2023-03-04T05:17:00;5.00;99.90
52471;DHT22;38382;53.160;7.026;2023-03-04T05:19:26;5.10;99.90
52471;DHT22;38382;53.160;7.026;2023-03-04T05:21:51;5.70;99.90
52471;DHT22;38382;53.160;7.026;2023-03-04T05:24:17;5.00;99.90
52471;DHT22;38382;53.160;7.026;2023-03-04T05:26:43;4.90;99.90
52471;DHT22;38382;53.160;7.026;2023-03-04T05:29:09;4.90;99.90
52471;DHT22;38382;53.160;7.026;2023-03-04T05:31:37;6.10;99.90
52471;DHT22;38382;53.160;7.026;2023-03-04T05:34:15;5.00;99.90
52471;DHT22;38382;53.160;7.026;2023-03-04T05:36:41;5.00;99.90
52471;DHT22;38382;53.160;7.026;2023-03-04T05:39:06;4.90;99.90
52471;DHT22;38382;53.160;7.026;2023-03-04T05:41:32;4.90;99.90
52471;DHT22;38382;53.160;7.026;2023-03-04T05:43:58;4.90;99.90
52471;DHT22;38382;53.160;7.026;2023-03-04T05:46:24;6.00;99.90
52471;DHT22;38382;53.160;7.026;2023-03-04T05:48:50;6.50;99.90
52471;DHT22;38382;53.160;7.026;2023-03-04T05:51:17;5.00;99.90
52471;DHT22;38382;53.160;7.026;2023-03-04T05:53:43;5.40;99.90
52471;DHT22;38382;53.160;7.026;2023-03-04T05:56:11;5.00;99.90
52471;DHT22;38382;53.160;7.026;2023-03-04T05:58:37;4.90;99.90
52471;DHT22;38382;53.160;7.026;2023-03-04T06:09:07;5.40;99.90
52471;DHT22;38382;53.160;7.026;2023-03-04T06:11:36;5.10;99.90
52471;DHT22;38382;53.160;7.026;2023-03-04T06:14:01;5.00;99.90
52471;DHT22;38382;53.160;7.026;2023-03-04T06:19:41;4.50;99.90
52471;DHT22;38382;53.160;7.026;2023-03-04T06:22:08;4.90;99.90
52471;DHT22;38382;53.160;7.026;2023-03-04T06:24:34;5.00;99.90
52471;DHT22;38382;53.160;7.026;2023-03-04T06:27:00;5.00;99.90
52471;DHT22;38382;53.160;7.026;2023-03-04T06:29:26;4.90;99.90
52471;DHT22;38382;53.160;7.026;2023-03-04T06:31:52;5.00;99.90
52471;DHT22;38382;53.160;7.026;2023-03-04T06:34:18;5.00;99.90
52471;DHT22;38382;53.160;7.026;2023-03-04T06:36:44;5.10;99.90
52471;DHT22;38382;53.160;7.026;2023-03-04T06:39:09;5.00;99.90
52471;DHT22;38382;53.160;7.026;2023-03-04T06:41:35;5.10;99.90
52471;DHT22;38382;53.160;7.026;2023-03-04T06:44:01;4.90;99.90
52471;DHT22;38382;53.160;7.026;2023-03-04T06:46:27;5.10;99.90
52471;DHT22;38382;53.160;7.026;2023-03-04T06:48:53;6.20;99.90
52471;DHT22;38382;53.160;7.026;2023-03-04T06:51:19;5.10;99.90
52471;DHT22;38382;53.160;7.026;2023-03-04T06:53:44;5.20;99.90
52471;DHT22;38382;53.160;7.026;2023-03-04T06:56:12;5.20;99.90
52471;DHT22;38382;53.160;7.026;2023-03-04T06:58:42;5.20;99.90
52471;DHT22;38382;53.160;7.026;2023-03-04T07:01:23;5.10;99.90
52471;DHT22;38382;53.160;7.026;2023-03-04T07:03:50;5.20;99.90
52471;DHT22;38382;53.160;7.026;2023-03-04T07:06:18;5.20;99.90
52471;DHT22;38382;53.160;7.026;2023-03-04T07:08:45;5.30;99.90
52471;DHT22;38382;53.160;7.026;2023-03-04T07:11:11;5.40;99.90
52471;DHT22;38382;53.160;7.026;2023-03-04T07:13:37;5.20;99.90
52471;DHT22;38382;53.160;7.026;2023-03-04T07:16:04;5.40;99.90
52471;DHT22;38382;53.160;7.026;2023-03-04T07:18:30;5.40;99.90
52471;DHT22;38382;53.160;7.026;2023-03-04T07:20:56;5.30;99.90
52471;DHT22;38382;53.160;7.026;2023-03-04T07:23:22;5.30;99.90
52471;DHT22;38382;53.160;7.026;2023-03-04T07:25:48;5.40;99.90
52471;DHT22;38382;53.160;7.026;2023-03-04T07:28:15;5.30;99.90
52471;DHT22;38382;53.160;7.026;2023-03-04T07:30:41;5.40;99.90
52471;DHT22;38382;53.160;7.026;2023-03-04T07:33:07;6.50;99.90
52471;DHT22;38382;53.160;7.026;2023-03-04T07:35:32;5.50;99.90
52471;DHT22;38382;53.160;7.026;2023-03-04T07:37:58;5.40;99.90
52471;DHT22;38382;53.160;7.026;2023-03-04T07:40:24;5.50;99.90
52471;DHT22;38382;53.160;7.026;2023-03-04T07:42:54;5.50;99.90
52471;DHT22;38382;53.160;7.026;2023-03-04T07:45:20;5.60;99.90
52471;DHT22;38382;53.160;7.026;2023-03-04T07:47:46;5.60;99.90
52471;DHT22;38382;53.160;7.026;2023-03-04T07:50:13;5.60;99.90
52471;DHT22;38382;53.160;7.026;2023-03-04T07:52:40;5.70;99.90
52471;DHT22;38382;53.160;7.026;2023-03-04T07:55:07;5.70;99.90
52471;DHT22;38382;53.160;7.026;2023-03-04T07:57:33;5.80;99.90
52471;DHT22;38382;53.160;7.026;2023-03-04T07:59:58;5.80;99.90
52471;DHT22;38382;53.160;7.026;2023-03-04T08:02:24;5.80;99.90
52471;DHT22;38382;53.160;7.026;2023-03-04T08:04:50;5.80;99.90
52471;DHT22;38382;53.160;7.026;2023-03-04T08:07:15;5.80;99.90
52471;DHT22;38382;53.160;7.026;2023-03-04T08:09:41;6.40;99.90
52471;DHT22;38382;53.160;7.026;2023-03-04T08:12:07;5.90;99.90
52471;DHT22;38382;53.160;7.026;2023-03-04T08:14:33;6.10;99.90
52471;DHT22;38382;53.160;7.026;2023-03-04T08:16:59;6.00;99.90
52471;DHT22;38382;53.160;7.026;2023-03-04T08:19:25;6.00;99.90
52471;DHT22;38382;53.160;7.026;2023-03-04T08:21:51;6.10;99.90
52471;DHT22;38382;53.160;7.026;2023-03-04T08:24:16;6.10;99.90
52471;DHT22;38382;53.160;7.026;2023-03-04T08:26:45;6.10;99.90
52471;DHT22;38382;53.160;7.026;2023-03-04T08:29:16;6.40;99.90
52471;DHT22;38382;53.160;7.026;2023-03-04T08:31:42;6.20;99.90
52471;DHT22;38382;53.160;7.026;2023-03-04T08:34:11;6.20;99.90
52471;DHT22;38382;53.160;7.026;2023-03-04T08:36:38;6.20;99.90
52471;DHT22;38382;53.160;7.026;2023-03-04T08:39:04;6.20;99.90
52471;DHT22;38382;53.160;7.026;2023-03-04T08:41:31;6.10;99.90
52471;DHT22;38382;53.160;7.026;2023-03-04T08:43:58;6.50;99.90
52471;DHT22;38382;53.160;7.026;2023-03-04T08:46:24;6.10;99.90
52471;DHT22;38382;53.160;7.026;2023-03-04T08:48:50;6.00;99.90
52471;DHT22;38382;53.160;7.026;2023-03-04T08:51:16;6.00;99.90
52471;DHT22;38382;53.160;7.026;2023-03-04T08:53:42;6.20;99.90
52471;DHT22;38382;53.160;7.026;2023-03-04T08:56:09;6.00;99.90
52471;DHT22;38382;53.160;7.026;2023-03-04T08:58:35;6.00;99.90
52471;DHT22;38382;53.160;7.026;2023-03-04T09:01:01;6.30;99.90
52471;DHT22;38382;53.160;7.026;2023-03-04T09:03:27;6.10;99.90
52471;DHT22;38382;53.160;7.026;2023-03-04T09:05:53;6.10;99.90
52471;DHT22;38382;53.160;7.026;2023-03-04T09:08:19;6.10;99.90
52471;DHT22;38382;53.160;7.026;2023-03-04T09:10:46;6.10;99.90
52471;DHT22;38382;53.160;7.026;2023-03-04T09:13:12;6.10;99.90
52471;DHT22;38382;53.160;7.026;2023-03-04T09:15:48;6.10;99.90
52471;DHT22;38382;53.160;7.026;2023-03-04T09:18:14;6.20;99.90
52471;DHT22;38382;53.160;7.026;2023-03-04T09:20:40;6.20;99.90
52471;DHT22;38382;53.160;7.026;2023-03-04T09:23:06;6.30;99.90
52471;DHT22;38382;53.160;7.026;2023-03-04T09:25:34;6.30;99.90
52471;DHT22;38382;53.160;7.026;2023-03-04T09:28:00;6.40;99.90
52471;DHT22;38382;53.160;7.026;2023-03-04T09:30:26;6.40;99.90
52471;DHT22;38382;53.160;7.026;2023-03-04T09:32:52;6.40;99.90
52471;DHT22;38382;53.160;7.026;2023-03-04T09:35:18;6.40;99.90
52471;DHT22;38382;53.160;7.026;2023-03-04T09:37:44;6.40;99.90
52471;DHT22;38382;53.160;7.026;2023-03-04T09:40:23;6.30;99.90
52471;DHT22;38382;53.160;7.026;2023-03-04T09:42:54;6.30;99.90
52471;DHT22;38382;53.160;7.026;2023-03-04T09:45:26;6.20;99.90
52471;DHT22;38382;53.160;7.026;2023-03-04T09:47:54;6.10;99.90
52471;DHT22;38382;53.160;7.026;2023-03-04T09:50:21;6.20;99.90
52471;DHT22;38382;53.160;7.026;2023-03-04T09:55:44;6.20;99.90
52471;DHT22;38382;53.160;7.026;2023-03-04T10:01:00;6.70;99.90
52471;DHT22;38382;53.160;7.026;2023-03-04T10:03:44;6.80;99.90
52471;DHT22;38382;53.160;7.026;2023-03-04T10:06:17;6.90;99.90
52471;DHT22;38382;53.160;7.026;2023-03-04T10:09:10;7.10;99.90
52471;DHT22;38382;53.160;7.026;2023-03-04T10:11:47;7.30;99.90
52471;DHT22;38382;53.160;7.026;2023-03-04T10:17:04;7.10;99.90
52471;DHT22;38382;53.160;7.026;2023-03-04T10:19:44;7.00;99.90
52471;DHT22;38382;53.160;7.026;2023-03-04T10:22:25;6.80;99.90
52471;DHT22;38382;53.160;7.026;2023-03-04T10:24:56;6.70;99.90
52471;DHT22;38382;53.160;7.026;2023-03-04T10:27:23;6.70;99.90
52471;DHT22;38382;53.160;7.026;2023-03-04T10:29:50;6.60;99.90
52471;DHT22;38382;53.160;7.026;2023-03-04T10:32:18;6.60;99.90
52471;DHT22;38382;53.160;7.026;2023-03-04T10:34:44;6.60;99.90
52471;DHT22;38382;53.160;7.026;2023-03-04T10:37:10;6.80;99.90
52471;DHT22;38382;53.160;7.026;2023-03-04T10:39:43;6.80;99.90
52471;DHT22;38382;53.160;7.026;2023-03-04T10:45:01;6.80;99.90
52471;DHT22;38382;53.160;7.026;2023-03-04T10:47:29;6.90;99.90
52471;DHT22;38382;53.160;7.026;2023-03-04T10:50:01;6.90;99.90
52471;DHT22;38382;53.160;7.026;2023-03-04T10:52:28;6.90;99.90
52471;DHT22;38382;53.160;7.026;2023-03-04T10:55:03;7.00;99.90
52471;DHT22;38382;53.160;7.026;2023-03-04T10:57:42;7.00;99.90
52471;DHT22;38382;53.160;7.026;2023-03-04T11:00:30;7.00;99.90
52471;DHT22;38382;53.160;7.026;2023-03-04T11:05:43;6.80;99.90
52471;DHT22;38382;53.160;7.026;2023-03-04T11:08:17;6.70;99.90
52471;DHT22;38382;53.160;7.026;2023-03-04T11:10:44;6.90;99.90
52471;DHT22;38382;53.160;7.026;2023-03-04T11:15:51;7.10;99.90
52471;DHT22;38382;53.160;7.026;2023-03-04T11:19:02;7.20;99.90
52471;DHT22;38382;53.160;7.026;2023-03-04T11:21:21;7.20;99.90
52471;DHT22;38382;53.160;7.026;2023-03-04T11:24:03;6.90;99.90
52471;DHT22;38382;53.160;7.026;2023-03-04T11:26:38;7.10;99.90
52471;DHT22;38382;53.160;7.026;2023-03-04T11:32:03;7.90;99.90
52471;DHT22;38382;53.160;7.026;2023-03-04T11:37:41;7.80;99.90
52471;DHT22;38382;53.160;7.026;2023-03-04T11:40:17;7.50;99.90
52471;DHT22;38382;53.160;7.026;2023-03-04T11:46:27;7.30;99.90
52471;DHT22;38382;53.160;7.026;2023-03-04T11:57:59;7.90;99.90
52471;DHT22;38382;53.160;7.026;2023-03-04T12:01:07;7.80;99.90
52471;DHT22;38382;53.160;7.026;2023-03-04T12:06:48;8.40;99.90
52471;DHT22;38382;53.160;7.026;2023-03-04T12:28:41;8.70;99.90
52471;DHT22;38382;53.160;7.026;2023-03-04T12:31:19;8.50;99.90
52471;DHT22;38382;53.160;7.026;2023-03-04T12:37:25;8.40;99.90
52471;DHT22;38382;53.160;7.026;2023-03-04T12:40:07;8.10;99.90
52471;DHT22;38382;53.160;7.026;2023-03-04T12:45:35;7.60;99.90
52471;DHT22;38382;53.160;7.026;2023-03-04T12:48:17;7.60;99.90
52471;DHT22;38382;53.160;7.026;2023-03-04T12:53:40;8.10;99.90
52471;DHT22;38382;53.160;7.026;2023-03-04T12:59:00;8.90;99.90
52471;DHT22;38382;53.160;7.026;2023-03-04T13:04:21;9.10;99.90
52471;DHT22;38382;53.160;7.026;2023-03-04T13:06:52;8.90;99.90
52471;DHT22;38382;53.160;7.026;2023-03-04T13:09:31;8.60;99.90
52471;DHT22;38382;53.160;7.026;2023-03-04T13:12:01;8.40;99.90
52471;DHT22;38382;53.160;7.026;2023-03-04T13:14:29;8.10;99.90
52471;DHT22;38382;53.160;7.026;2023-03-04T13:17:01;8.00;99.90
52471;DHT22;38382;53.160;7.026;2023-03-04T13:19:55;8.00;99.90
52471;DHT22;38382;53.160;7.026;2023-03-04T13:25:40;8.20;99.90
52471;DHT22;38382;53.160;7.026;2023-03-04T13:35:49;7.60;99.90
52471;DHT22;38382;53.160;7.026;2023-03-04T13:56:37;8.80;99.90
52471;DHT22;38382;53.160;7.026;2023-03-04T13:59:29;8.80;99.90
52471;DHT22;38382;53.160;7.026;2023-03-04T14:04:37;7.90;99.90
52471;DHT22;38382;53.160;7.026;2023-03-04T14:07:26;7.40;99.90
52471;DHT22;38382;53.160;7.026;2023-03-04T14:12:22;6.70;99.90
52471;DHT22;38382;53.160;7.026;2023-03-04T14:17:39;7.00;99.90
52471;DHT22;38382;53.160;7.026;2023-03-04T14:20:36;7.70;99.90
52471;DHT22;38382;53.160;7.026;2023-03-04T14:23:06;9.40;99.90
52471;DHT22;38382;53.160;7.026;2023-03-04T14:25:46;11.10;99.90
52471;DHT22;38382;53.160;7.026;2023-03-04T14:28:16;12.80;99.90
52471;DHT22;38382;53.160;7.026;2023-03-04T14:30:43;12.70;99.90
52471;DHT22;38382;53.160;7.026;2023-03-04T14:33:18;12.00;99.90
52471;DHT22;38382;53.160;7.026;2023-03-04T14:35:51;11.00;99.90
52471;DHT22;38382;53.160;7.026;2023-03-04T14:38:26;10.00;99.90
52471;DHT22;38382;53.160;7.026;2023-03-04T14:43:30;8.60;99.90
52471;DHT22;38382;53.160;7.026;2023-03-04T14:46:01;8.40;99.90
52471;DHT22;38382;53.160;7.026;2023-03-04T14:48:30;8.30;99.90
52471;DHT22;38382;53.160;7.026;2023-03-04T14:50:58;8.30;99.90
52471;DHT22;38382;53.160;7.026;2023-03-04T14:53:26;8.50;99.90
52471;DHT22;38382;53.160;7.026;2023-03-04T14:58:24;8.50;99.90
52471;DHT22;38382;53.160;7.026;2023-03-04T15:01:14;8.30;99.90
52471;DHT22;38382;53.160;7.026;2023-03-04T15:03:55;8.10;99.90
52471;DHT22;38382;53.160;7.026;2023-03-04T15:06:24;8.00;99.90
52471;DHT22;38382;53.160;7.026;2023-03-04T15:09:06;7.80;99.90
52471;DHT22;38382;53.160;7.026;2023-03-04T15:12:02;7.70;99.90
52471;DHT22;38382;53.160;7.026;2023-03-04T15:14:52;7.70;99.90
52471;DHT22;38382;53.160;7.026;2023-03-04T15:20:24;7.70;99.90
52471;DHT22;38382;53.160;7.026;2023-03-04T15:25:16;7.40;99.90
52471;DHT22;38382;53.160;7.026;2023-03-04T15:27:47;7.10;99.90
52471;DHT22;38382;53.160;7.026;2023-03-04T15:32:46;6.60;99.90
52471;DHT22;38382;53.160;7.026;2023-03-04T15:35:13;6.40;99.90
52471;DHT22;38382;53.160;7.026;2023-03-04T15:37:40;6.60;99.90
52471;DHT22;38382;53.160;7.026;2023-03-04T15:40:28;6.40;99.90
52471;DHT22;38382;53.160;7.026;2023-03-04T15:42:56;6.60;99.90
52471;DHT22;38382;53.160;7.026;2023-03-04T15:45:26;6.80;99.90
52471;DHT22;38382;53.160;7.026;2023-03-04T15:47:52;6.80;99.90
52471;DHT22;38382;53.160;7.026;2023-03-04T15:50:19;6.90;99.90
52471;DHT22;38382;53.160;7.026;2023-03-04T15:52:45;6.70;99.90
52471;DHT22;38382;53.160;7.026;2023-03-04T15:55:20;6.60;99.90
52471;DHT22;38382;53.160;7.026;2023-03-04T15:57:48;6.50;99.90
52471;DHT22;38382;53.160;7.026;2023-03-04T16:00:15;6.40;99.90
52471;DHT22;38382;53.160;7.026;2023-03-04T16:02:42;6.30;99.90
52471;DHT22;38382;53.160;7.026;2023-03-04T16:05:08;6.20;99.90
52471;DHT22;38382;53.160;7.026;2023-03-04T16:07:36;6.10;99.90
52471;DHT22;38382;53.160;7.026;2023-03-04T16:10:19;6.10;99.90
52471;DHT22;38382;53.160;7.026;2023-03-04T16:12:45;6.00;99.90
52471;DHT22;38382;53.160;7.026;2023-03-04T16:15:16;6.00;99.90
52471;DHT22;38382;53.160;7.026;2023-03-04T16:17:44;5.90;99.90
52471;DHT22;38382;53.160;7.026;2023-03-04T16:20:13;5.90;99.90
52471;DHT22;38382;53.160;7.026;2023-03-04T16:22:41;5.90;99.90
52471;DHT22;38382;53.160;7.026;2023-03-04T16:25:17;5.80;99.90
52471;DHT22;38382;53.160;7.026;2023-03-04T16:27:43;5.80;99.90
52471;DHT22;38382;53.160;7.026;2023-03-04T16:30:18;6.40;99.90
52471;DHT22;38382;53.160;7.026;2023-03-04T16:32:44;5.70;99.90
52471;DHT22;38382;53.160;7.026;2023-03-04T16:35:11;5.70;99.90
52471;DHT22;38382;53.160;7.026;2023-03-04T16:37:37;5.60;99.90
52471;DHT22;38382;53.160;7.026;2023-03-04T16:40:04;5.50;99.90
52471;DHT22;38382;53.160;7.026;2023-03-04T16:42:30;5.30;99.90
52471;DHT22;38382;53.160;7.026;2023-03-04T16:44:56;5.30;99.90
52471;DHT22;38382;53.160;7.026;2023-03-04T16:47:22;5.70;99.90
52471;DHT22;38382;53.160;7.026;2023-03-04T16:49:48;5.20;99.90
52471;DHT22;38382;53.160;7.026;2023-03-04T16:52:23;5.20;99.90
52471;DHT22;38382;53.160;7.026;2023-03-04T16:54:49;5.10;99.90
52471;DHT22;38382;53.160;7.026;2023-03-04T16:57:15;6.10;99.90
52471;DHT22;38382;53.160;7.026;2023-03-04T16:59:40;5.10;99.90
52471;DHT22;38382;53.160;7.026;2023-03-04T17:02:18;5.00;99.90
52471;DHT22;38382;53.160;7.026;2023-03-04T17:04:45;4.90;99.90
52471;DHT22;38382;53.160;7.026;2023-03-04T17:07:11;4.90;99.90
52471;DHT22;38382;53.160;7.026;2023-03-04T17:09:38;4.80;99.90
52471;DHT22;38382;53.160;7.026;2023-03-04T17:12:05;4.80;99.90
52471;DHT22;38382;53.160;7.026;2023-03-04T17:14:34;4.80;99.90
52471;DHT22;38382;53.160;7.026;2023-03-04T17:17:02;4.90;99.90
52471;DHT22;38382;53.160;7.026;2023-03-04T17:19:28;4.70;99.90
52471;DHT22;38382;53.160;7.026;2023-03-04T17:21:58;4.70;99.90
52471;DHT22;38382;53.160;7.026;2023-03-04T17:24:24;4.70;99.90
52471;DHT22;38382;53.160;7.026;2023-03-04T17:26:50;4.80;99.90
52471;DHT22;38382;53.160;7.026;2023-03-04T17:29:15;5.60;99.90
52471;DHT22;38382;53.160;7.026;2023-03-04T17:31:41;4.70;99.90
52471;DHT22;38382;53.160;7.026;2023-03-04T17:34:07;4.50;99.90
52471;DHT22;38382;53.160;7.026;2023-03-04T17:36:33;5.00;99.90
52471;DHT22;38382;53.160;7.026;2023-03-04T17:39:00;4.50;99.90
52471;DHT22;38382;53.160;7.026;2023-03-04T17:41:26;4.50;99.90
52471;DHT22;38382;53.160;7.026;2023-03-04T17:43:53;4.50;99.90
52471;DHT22;38382;53.160;7.026;2023-03-04T17:46:21;4.40;99.90
52471;DHT22;38382;53.160;7.026;2023-03-04T17:48:48;4.60;99.90
52471;DHT22;38382;53.160;7.026;2023-03-04T17:51:14;4.40;99.90
52471;DHT22;38382;53.160;7.026;2023-03-04T17:53:40;4.30;99.90
52471;DHT22;38382;53.160;7.026;2023-03-04T17:56:07;4.30;99.90
52471;DHT22;38382;53.160;7.026;2023-03-04T17:58:35;4.20;99.90
52471;DHT22;38382;53.160;7.026;2023-03-04T18:01:10;4.20;99.90
52471;DHT22;38382;53.160;7.026;2023-03-04T18:03:37;4.20;99.90
52471;DHT22;38382;53.160;7.026;2023-03-04T18:06:03;5.30;99.90
52471;DHT22;38382;53.160;7.026;2023-03-04T18:08:29;4.20;99.90
52471;DHT22;38382;53.160;7.026;2023-03-04T18:10:55;4.20;99.90
52471;DHT22;38382;53.160;7.026;2023-03-04T18:13:20;4.10;99.90
52471;DHT22;38382;53.160;7.026;2023-03-04T18:15:46;4.20;99.90
52471;DHT22;38382;53.160;7.026;2023-03-04T18:18:12;4.30;99.90